Time;durP1;ratioP1;P1;durP2;ratioP2;P2;SDS_P1;SDS_P2;PMS_P1;PMS_P2;Temp;Humidity;BMP_temperature;BMP_pressure;BME280_temperature;BME280_humidity;BME280_pressure;Samples;Min_cycle;Max_cycle;Signal;HPM_P1;HPM_P2
2021/10/02 00:01:26;;;;;;;18.20;5.73;;;;;;;;;;4850541;29;20202;-90
2021/10/02 00:34:25;;;;;;;16.47;6.87;;;;;;;;;;4851466;29;20250;-91
2021/10/02 00:37:55;;;;;;;12.27;6.87;;;;;;;;;;4849246;29;20235;-90
2021/10/02 00:41:24;;;;;;;17.63;7.77;;;;;;;;;;4849832;29;20206;-89
2021/10/02 00:44:39;;;;;;;17.60;8.47;;;;;;;;;;4850377;29;20202;-90
2021/10/02 00:47:54;;;;;;;28.47;9.00;;;;;;;;;;4848789;29;20259;-90
2021/10/02 00:51:05;;;;;;;23.07;8.87;;;;;;;;;;4850288;29;20207;-90
2021/10/02 00:54:17;;;;;;;18.03;8.97;;;;;;;;;;4850005;29;20198;-90
2021/10/02 00:57:31;;;;;;;16.27;8.40;;;;;;;;;;4848860;29;20199;-89
2021/10/02 01:00:45;;;;;;;17.53;8.17;;;;;;;;;;4848963;29;20194;-90
2021/10/02 01:04:01;;;;;;;15.80;8.40;;;;;;;;;;4848852;29;20302;-89
2021/10/02 01:07:22;;;;;;;16.57;8.33;;;;;;;;;;4849690;29;20223;-89
2021/10/02 01:10:40;;;;;;;16.67;7.87;;;;;;;;;;4849717;29;20198;-91
2021/10/02 01:13:58;;;;;;;15.50;8.27;;;;;;;;;;4849066;29;20199;-90
2021/10/02 01:17:16;;;;;;;17.93;8.27;;;;;;;;;;4848844;29;20199;-90
2021/10/02 01:20:36;;;;;;;15.43;7.57;;;;;;;;;;4848915;29;20208;-91
2021/10/02 01:23:53;;;;;;;21.53;8.17;;;;;;;;;;4849447;29;20195;-91
2021/10/02 01:27:25;;;;;;;34.10;9.53;;;;;;;;;;4850052;29;20279;-90
2021/10/02 01:34:18;;;;;;;19.77;8.63;;;;;;;;;;4850275;29;20219;-90
2021/10/02 01:37:42;;;;;;;18.37;8.93;;;;;;;;;;4849463;29;20218;-91
2021/10/02 01:48:10;;;;;;;16.37;8.17;;;;;;;;;;4849493;29;20304;-91
2021/10/02 01:51:22;;;;;;;15.00;7.70;;;;;;;;;;4848891;29;20259;-90
2021/10/02 01:54:35;;;;;;;13.97;8.03;;;;;;;;;;4848400;29;20198;-90
2021/10/02 01:57:48;;;;;;;13.93;7.37;;;;;;;;;;4847480;29;20266;-91
2021/10/02 02:01:01;;;;;;;11.67;7.40;;;;;;;;;;4848615;29;20270;-89
2021/10/02 02:04:35;;;;;;;15.50;7.47;;;;;;;;;;4848789;29;20190;-90
2021/10/02 02:07:50;;;;;;;20.57;8.87;;;;;;;;;;4848612;29;20226;-90
2021/10/02 02:11:01;;;;;;;19.17;8.77;;;;;;;;;;4848493;29;20203;-91
2021/10/02 02:14:13;;;;;;;34.60;9.00;;;;;;;;;;4848847;29;20210;-90
2021/10/02 02:17:25;;;;;;;23.13;8.93;;;;;;;;;;4849360;29;20247;-90
2021/10/02 02:20:41;;;;;;;19.37;8.80;;;;;;;;;;4847930;29;20685;-90
2021/10/02 02:23:52;;;;;;;44.37;9.50;;;;;;;;;;4848851;29;20207;-90
2021/10/02 02:27:05;;;;;;;18.83;9.13;;;;;;;;;;4848880;29;20599;-89
2021/10/02 02:30:16;;;;;;;17.30;8.50;;;;;;;;;;4847525;29;20218;-89
2021/10/02 02:33:28;;;;;;;21.60;8.97;;;;;;;;;;4849086;29;20202;-90
2021/10/02 02:36:41;;;;;;;27.83;8.40;;;;;;;;;;4847042;29;20202;-88
2021/10/02 02:39:53;;;;;;;62.37;9.80;;;;;;;;;;4848390;29;20214;-91
2021/10/02 02:43:03;;;;;;;42.97;9.27;;;;;;;;;;4849276;29;20230;-90
2021/10/02 02:46:18;;;;;;;44.20;10.83;;;;;;;;;;4850975;29;20318;-89
2021/10/02 02:49:34;;;;;;;28.60;10.33;;;;;;;;;;4849698;29;20190;-89
2021/10/02 02:52:53;;;;;;;34.80;9.77;;;;;;;;;;4849470;29;20206;-90
2021/10/02 02:56:06;;;;;;;41.20;9.73;;;;;;;;;;4850127;29;20215;-91
2021/10/02 02:59:20;;;;;;;25.47;9.13;;;;;;;;;;4851352;29;20206;-91
2021/10/02 03:02:34;;;;;;;25.27;10.30;;;;;;;;;;4851594;29;20227;-90
2021/10/02 03:05:46;;;;;;;50.63;10.43;;;;;;;;;;4849701;29;20254;-91
2021/10/02 03:09:00;;;;;;;31.07;11.23;;;;;;;;;;4849412;29;20210;-92
2021/10/02 03:12:13;;;;;;;58.77;10.97;;;;;;;;;;4850492;29;20239;-89
2021/10/02 03:15:25;;;;;;;134.63;12.77;;;;;;;;;;4850911;29;20190;-90
2021/10/02 03:18:40;;;;;;;165.93;14.10;;;;;;;;;;4849821;29;20215;-90
2021/10/02 03:21:52;;;;;;;27.10;11.57;;;;;;;;;;4848641;29;20667;-88
2021/10/02 03:25:06;;;;;;;26.90;10.70;;;;;;;;;;4850935;29;20183;-91
2021/10/02 03:28:18;;;;;;;63.87;10.43;;;;;;;;;;4854182;29;20346;-90
2021/10/02 03:31:29;;;;;;;48.10;11.07;;;;;;;;;;4853803;29;20243;-90
2021/10/02 03:34:43;;;;;;;37.17;10.70;;;;;;;;;;4854111;29;20666;-90
2021/10/02 03:37:55;;;;;;;41.50;10.10;;;;;;;;;;4855783;29;20182;-90
2021/10/02 03:41:07;;;;;;;25.47;10.70;;;;;;;;;;4854539;29;20691;-91
2021/10/02 03:44:20;;;;;;;25.20;10.10;;;;;;;;;;4854901;29;20210;-90
2021/10/02 03:47:32;;;;;;;32.53;9.77;;;;;;;;;;4854746;29;20214;-91
2021/10/02 03:50:44;;;;;;;27.27;10.47;;;;;;;;;;4854131;29;20344;-89
2021/10/02 03:53:56;;;;;;;31.23;9.97;;;;;;;;;;4852835;29;20191;-90
2021/10/02 03:57:08;;;;;;;46.40;10.07;;;;;;;;;;4853630;29;20187;-90
2021/10/02 04:00:21;;;;;;;33.50;10.40;;;;;;;;;;4853216;29;20195;-90
2021/10/02 04:03:33;;;;;;;32.60;9.53;;;;;;;;;;4852276;29;20207;-90
2021/10/02 04:06:46;;;;;;;32.47;10.23;;;;;;;;;;4853821;29;20218;-90
2021/10/02 04:09:58;;;;;;;87.30;11.70;;;;;;;;;;4853914;29;20339;-90
2021/10/02 04:13:11;;;;;;;74.47;12.23;;;;;;;;;;4855295;29;20252;-91
2021/10/02 04:16:23;;;;;;;24.80;11.00;;;;;;;;;;4855301;29;20202;-91
2021/10/02 04:19:36;;;;;;;45.40;11.03;;;;;;;;;;4852953;29;20191;-90
2021/10/02 04:22:48;;;;;;;23.93;10.07;;;;;;;;;;4852918;29;20247;-89
2021/10/02 04:25:59;;;;;;;21.23;10.67;;;;;;;;;;4853174;29;20234;-90
2021/10/02 04:29:13;;;;;;;31.30;10.10;;;;;;;;;;4853137;29;20280;-90
2021/10/02 04:32:25;;;;;;;45.73;10.80;;;;;;;;;;4853538;29;20202;-91
2021/10/02 04:35:36;;;;;;;24.10;10.50;;;;;;;;;;4852547;29;20211;-89
2021/10/02 04:38:48;;;;;;;25.57;10.00;;;;;;;;;;4850939;29;20217;-90
2021/10/02 04:41:59;;;;;;;34.50;10.80;;;;;;;;;;4852619;29;20202;-91
2021/10/02 04:45:17;;;;;;;24.70;11.37;;;;;;;;;;4853353;29;20259;-91
2021/10/02 04:48:29;;;;;;;31.13;12.27;;;;;;;;;;4852873;29;20233;-91
2021/10/02 04:51:40;;;;;;;24.13;10.93;;;;;;;;;;4853133;29;20195;-90
2021/10/02 04:54:52;;;;;;;44.47;11.10;;;;;;;;;;4852030;29;20310;-90
2021/10/02 04:58:06;;;;;;;21.90;9.67;;;;;;;;;;4852154;29;20223;-89
2021/10/02 05:01:19;;;;;;;23.67;11.27;;;;;;;;;;4852800;29;20199;-91
2021/10/02 05:04:31;;;;;;;21.07;10.07;;;;;;;;;;4852035;29;20239;-90
2021/10/02 05:07:43;;;;;;;17.30;9.73;;;;;;;;;;4853689;29;20313;-89
2021/10/02 05:10:54;;;;;;;23.90;11.17;;;;;;;;;;4851606;29;20271;-91
2021/10/02 05:14:06;;;;;;;20.03;10.73;;;;;;;;;;4853853;29;20198;-91
2021/10/02 05:17:19;;;;;;;18.17;10.10;;;;;;;;;;4851874;29;20234;-89
2021/10/02 05:20:30;;;;;;;20.23;10.20;;;;;;;;;;4853143;29;20216;-90
2021/10/02 05:23:41;;;;;;;24.00;10.10;;;;;;;;;;4854004;29;20211;-91
2021/10/02 05:26:53;;;;;;;30.50;11.17;;;;;;;;;;4852989;29;20199;-89
2021/10/02 05:30:05;;;;;;;22.80;11.37;;;;;;;;;;4854108;29;20237;-90
2021/10/02 05:33:19;;;;;;;21.27;10.43;;;;;;;;;;4851500;29;20290;-90
2021/10/02 05:36:31;;;;;;;18.53;10.13;;;;;;;;;;4851783;29;20195;-90
2021/10/02 05:39:43;;;;;;;21.50;11.20;;;;;;;;;;4853062;29;20202;-91
2021/10/02 05:42:58;;;;;;;23.02;10.80;;;;;;;;;;4853160;29;20199;-91
2021/10/02 05:46:09;;;;;;;18.13;10.87;;;;;;;;;;4853493;29;20225;-90
2021/10/02 05:49:22;;;;;;;19.50;9.93;;;;;;;;;;4853253;29;20206;-91
2021/10/02 05:52:34;;;;;;;18.87;10.90;;;;;;;;;;4854146;29;20566;-90
2021/10/02 05:55:46;;;;;;;23.50;11.00;;;;;;;;;;4855239;29;20202;-91
2021/10/02 05:58:57;;;;;;;26.63;11.73;;;;;;;;;;4853822;29;20210;-91
2021/10/02 06:02:09;;;;;;;18.90;10.37;;;;;;;;;;4853110;29;20566;-90
2021/10/02 06:05:26;;;;;;;19.53;10.17;;;;;;;;;;4853560;29;20328;-91
2021/10/02 06:08:37;;;;;;;22.17;13.63;;;;;;;;;;4851468;29;20460;-90
2021/10/02 06:11:49;;;;;;;20.35;11.15;;;;;;;;;;4852122;29;20431;-92
2021/10/02 06:15:01;;;;;;;36.03;17.23;;;;;;;;;;4851677;29;20182;-91
2021/10/02 06:18:12;;;;;;;27.20;11.47;;;;;;;;;;4853287;29;20625;-90
2021/10/02 06:21:25;;;;;;;20.27;10.83;;;;;;;;;;4851575;29;20218;-90
2021/10/02 06:24:37;;;;;;;30.07;11.67;;;;;;;;;;4852292;29;20222;-92
2021/10/02 06:27:49;;;;;;;22.67;10.70;;;;;;;;;;4852275;29;20271;-89
2021/10/02 06:31:01;;;;;;;20.97;11.43;;;;;;;;;;4852546;29;20183;-89
2021/10/02 06:34:14;;;;;;;19.27;10.37;;;;;;;;;;4852128;29;20195;-90
2021/10/02 06:37:27;;;;;;;25.37;11.47;;;;;;;;;;4853136;29;20662;-90
2021/10/02 06:40:42;;;;;;;23.60;11.13;;;;;;;;;;4851666;29;20377;-90
2021/10/02 06:43:52;;;;;;;23.83;11.23;;;;;;;;;;4853333;29;20195;-90
2021/10/02 06:47:07;;;;;;;24.97;11.33;;;;;;;;;;4852288;29;20214;-89
2021/10/02 06:50:19;;;;;;;22.25;11.30;;;;;;;;;;4851588;29;20195;-89
2021/10/02 06:53:32;;;;;;;28.20;12.55;;;;;;;;;;4852330;29;20203;-91
2021/10/02 06:56:44;;;;;;;23.33;12.23;;;;;;;;;;4851159;29;20183;-91
2021/10/02 06:59:56;;;;;;;23.23;11.88;;;;;;;;;;4853829;29;20209;-89
2021/10/02 07:03:08;;;;;;;27.85;12.30;;;;;;;;;;4856916;29;20203;-89
2021/10/02 07:06:20;;;;;;;21.70;11.68;;;;;;;;;;4857113;29;20214;-89
2021/10/02 07:09:34;;;;;;;26.05;12.50;;;;;;;;;;4855869;29;20252;-90
2021/10/02 07:12:45;;;;;;;24.42;12.18;;;;;;;;;;4857053;29;20200;-90
2021/10/02 07:15:58;;;;;;;22.13;12.23;;;;;;;;;;4855934;29;20198;-88
2021/10/02 07:19:10;;;;;;;21.95;11.48;;;;;;;;;;4857143;29;20195;-89
2021/10/02 07:22:23;;;;;;;21.52;11.90;;;;;;;;;;4855980;29;20207;-90
2021/10/02 07:25:35;;;;;;;22.17;11.52;;;;;;;;;;4854337;29;20228;-89
2021/10/02 07:28:47;;;;;;;22.42;11.25;;;;;;;;;;4855449;29;20246;-92
2021/10/02 07:31:59;;;;;;;23.67;11.00;;;;;;;;;;4856493;29;20200;-89
2021/10/02 07:35:12;;;;;;;21.75;11.55;;;;;;;;;;4856051;29;20211;-90
2021/10/02 07:38:24;;;;;;;20.45;11.35;;;;;;;;;;4856041;29;20577;-91
2021/10/02 07:41:40;;;;;;;21.73;12.27;;;;;;;;;;4857675;29;20270;-90
2021/10/02 07:44:55;;;;;;;19.48;10.73;;;;;;;;;;4855661;29;20198;-89
2021/10/02 07:48:06;;;;;;;28.35;11.88;;;;;;;;;;4856904;29;20297;-90
2021/10/02 07:51:18;;;;;;;22.23;12.13;;;;;;;;;;4856025;29;20183;-90
2021/10/02 07:54:30;;;;;;;20.77;11.68;;;;;;;;;;4854798;29;20231;-91
2021/10/02 07:57:45;;;;;;;20.80;11.43;;;;;;;;;;4855774;29;20675;-90
2021/10/02 08:00:56;;;;;;;20.70;10.77;;;;;;;;;;4856328;29;20234;-90
2021/10/02 08:04:08;;;;;;;17.67;10.90;;;;;;;;;;4854037;29;20320;-90
2021/10/02 08:07:22;;;;;;;18.70;10.40;;;;;;;;;;4854645;29;20627;-91
2021/10/02 08:10:33;;;;;;;18.58;11.15;;;;;;;;;;4856730;29;20307;-91
2021/10/02 08:13:46;;;;;;;16.75;9.88;;;;;;;;;;4855261;29;20256;-90
2021/10/02 08:16:58;;;;;;;14.75;9.75;;;;;;;;;;4859044;29;20187;-90
2021/10/02 08:20:11;;;;;;;17.98;9.18;;;;;;;;;;4856347;29;20206;-92
2021/10/02 08:23:23;;;;;;;16.65;10.27;;;;;;;;;;4856308;29;20194;-91
2021/10/02 08:26:36;;;;;;;18.40;10.18;;;;;;;;;;4856063;29;20222;-91
2021/10/02 08:29:50;;;;;;;18.23;9.45;;;;;;;;;;4856261;29;20242;-91
2021/10/02 08:33:04;;;;;;;15.10;8.80;;;;;;;;;;4857473;29;20186;-90
2021/10/02 08:36:17;;;;;;;15.38;8.90;;;;;;;;;;4857427;29;20202;-90
2021/10/02 08:39:28;;;;;;;17.88;9.38;;;;;;;;;;4856532;29;20275;-88
2021/10/02 08:42:41;;;;;;;17.90;9.50;;;;;;;;;;4857349;29;20540;-90
2021/10/02 08:45:56;;;;;;;17.65;9.80;;;;;;;;;;4856073;29;20217;-92
2021/10/02 08:49:32;;;;;;;14.38;8.70;;;;;;;;;;4855919;29;20226;-91
2021/10/02 08:52:45;;;;;;;18.45;9.27;;;;;;;;;;4856368;29;20230;-91
2021/10/02 08:56:01;;;;;;;15.27;8.25;;;;;;;;;;4855845;29;20211;-91
2021/10/02 08:59:15;;;;;;;15.90;8.57;;;;;;;;;;4856326;29;20256;-91
2021/10/02 09:02:42;;;;;;;14.55;7.80;;;;;;;;;;4855681;29;20332;-90
2021/10/02 09:10:02;;;;;;;10.88;7.53;;;;;;;;;;4855394;29;20210;-91
2021/10/02 09:13:15;;;;;;;16.35;8.27;;;;;;;;;;4852306;29;20207;-91
2021/10/02 09:16:27;;;;;;;13.32;7.43;;;;;;;;;;4852099;29;20210;-90
2021/10/02 09:19:41;;;;;;;16.20;8.27;;;;;;;;;;4854563;29;20199;-90
2021/10/02 09:22:53;;;;;;;20.35;7.68;;;;;;;;;;4851813;29;20223;-91
2021/10/02 09:26:08;;;;;;;13.02;7.57;;;;;;;;;;4852967;29;20195;-91
2021/10/02 09:29:21;;;;;;;12.13;7.15;;;;;;;;;;4852984;29;20717;-91
2021/10/02 09:32:42;;;;;;;14.10;6.72;;;;;;;;;;4855681;29;20310;-91
2021/10/02 09:35:54;;;;;;;15.63;7.03;;;;;;;;;;4853248;29;20202;-90
2021/10/02 09:39:06;;;;;;;10.52;6.82;;;;;;;;;;4852827;29;20578;-91
2021/10/02 09:42:39;;;;;;;12.32;6.90;;;;;;;;;;4853858;29;20190;-91
2021/10/02 09:45:51;;;;;;;15.02;6.03;;;;;;;;;;4856092;29;20199;-89
2021/10/02 09:49:03;;;;;;;12.10;5.47;;;;;;;;;;4850802;29;20304;-90
2021/10/02 09:52:31;;;;;;;14.13;6.20;;;;;;;;;;4854958;29;20658;-91
2021/10/02 09:55:47;;;;;;;10.35;5.78;;;;;;;;;;4854210;29;20231;-89
2021/10/02 09:59:01;;;;;;;10.70;5.88;;;;;;;;;;4854167;29;20179;-92
2021/10/02 10:02:14;;;;;;;8.20;5.13;;;;;;;;;;4852172;29;20244;-90
2021/10/02 10:05:30;;;;;;;9.90;5.00;;;;;;;;;;4854391;29;20218;-90
2021/10/02 10:08:42;;;;;;;10.18;5.50;;;;;;;;;;4856144;29;20226;-92
2021/10/02 10:11:56;;;;;;;10.07;4.85;;;;;;;;;;4855288;29;20203;-91
2021/10/02 10:15:27;;;;;;;8.15;4.80;;;;;;;;;;4851280;29;20259;-89
2021/10/02 10:18:39;;;;;;;8.70;5.18;;;;;;;;;;4852722;29;20277;-92
2021/10/02 10:22:05;;;;;;;11.73;5.82;;;;;;;;;;4851461;29;20293;-90
2021/10/02 10:25:16;;;;;;;7.80;4.95;;;;;;;;;;4851991;29;20212;-89
2021/10/02 10:28:30;;;;;;;8.32;4.47;;;;;;;;;;4853818;29;20242;-89
2021/10/02 10:31:51;;;;;;;12.65;4.80;;;;;;;;;;4850614;29;20229;-90
2021/10/02 10:35:03;;;;;;;10.60;5.38;;;;;;;;;;4848422;29;20261;-91
2021/10/02 10:38:15;;;;;;;10.20;5.28;;;;;;;;;;4849658;29;20230;-91
2021/10/02 10:41:29;;;;;;;10.77;5.70;;;;;;;;;;4851299;29;20246;-90
2021/10/02 10:44:41;;;;;;;11.48;5.05;;;;;;;;;;4851909;29;20248;-91
2021/10/02 10:47:56;;;;;;;9.73;5.28;;;;;;;;;;4849391;29;20223;-90
2021/10/02 10:51:08;;;;;;;13.90;5.35;;;;;;;;;;4849417;29;20730;-89
2021/10/02 10:54:20;;;;;;;11.80;5.32;;;;;;;;;;4850420;29;20198;-89
2021/10/02 10:57:36;;;;;;;7.47;4.60;;;;;;;;;;4850212;29;20194;-89
2021/10/02 11:00:48;;;;;;;7.95;4.63;;;;;;;;;;4852858;29;20219;-90
2021/10/02 11:04:06;;;;;;;8.75;4.25;;;;;;;;;;4852322;29;20213;-91
2021/10/02 11:07:19;;;;;;;10.15;4.78;;;;;;;;;;4852502;29;20195;-92
2021/10/02 11:10:47;;;;;;;6.78;4.60;;;;;;;;;;4851743;29;20249;-89
2021/10/02 11:13:59;;;;;;;8.50;5.00;;;;;;;;;;4850172;29;20205;-91
2021/10/02 11:17:11;;;;;;;9.50;4.68;;;;;;;;;;4850138;29;20194;-91
2021/10/02 11:20:41;;;;;;;7.63;4.82;;;;;;;;;;4850012;29;20203;-90
2021/10/02 11:24:07;;;;;;;9.82;5.05;;;;;;;;;;4848934;29;20218;-91
2021/10/02 11:27:23;;;;;;;8.48;4.72;;;;;;;;;;4852117;29;20195;-89
2021/10/02 11:30:46;;;;;;;8.95;4.20;;;;;;;;;;4856129;29;20283;-91
2021/10/02 11:34:01;;;;;;;10.25;3.88;;;;;;;;;;4847548;29;20234;-92
2021/10/02 11:37:15;;;;;;;5.68;3.63;;;;;;;;;;4849944;29;20210;-91
2021/10/02 11:40:46;;;;;;;8.18;3.78;;;;;;;;;;4850017;29;20271;-92
2021/10/02 11:43:59;;;;;;;8.45;4.13;;;;;;;;;;4851989;29;20231;-91
2021/10/02 11:47:29;;;;;;;6.55;3.80;;;;;;;;;;4851696;29;20214;-91
2021/10/02 11:50:41;;;;;;;4.10;3.00;;;;;;;;;;4854112;29;20233;-91
2021/10/02 11:53:56;;;;;;;4.18;3.00;;;;;;;;;;4855647;29;20214;-91
2021/10/02 11:57:11;;;;;;;7.53;3.38;;;;;;;;;;4854146;29;20224;-91
2021/10/02 12:00:23;;;;;;;6.43;3.10;;;;;;;;;;4854415;29;20231;-91
2021/10/02 12:03:37;;;;;;;6.68;3.65;;;;;;;;;;4857814;29;20215;-91
2021/10/02 12:06:48;;;;;;;7.55;3.50;;;;;;;;;;4856389;29;20547;-91
2021/10/02 12:10:02;;;;;;;7.97;3.55;;;;;;;;;;4852906;29;20336;-90
2021/10/02 12:13:20;;;;;;;7.43;3.08;;;;;;;;;;4853273;29;20309;-90
2021/10/02 12:16:33;;;;;;;5.40;3.00;;;;;;;;;;4853568;29;20210;-91
2021/10/02 12:19:44;;;;;;;7.05;3.47;;;;;;;;;;4852186;29;20203;-91
2021/10/02 12:23:07;;;;;;;7.32;3.15;;;;;;;;;;4853934;29;20191;-89
2021/10/02 12:26:19;;;;;;;5.97;3.28;;;;;;;;;;4854705;29;20271;-90
2021/10/02 12:29:32;;;;;;;7.28;3.30;;;;;;;;;;4854582;29;20662;-90
2021/10/02 12:32:44;;;;;;;7.05;4.03;;;;;;;;;;4855953;29;20194;-89
2021/10/02 12:35:56;;;;;;;8.85;3.72;;;;;;;;;;4853231;29;20719;-92
2021/10/02 12:39:08;;;;;;;6.40;3.30;;;;;;;;;;4854131;29;20277;-91
2021/10/02 12:42:32;;;;;;;3.97;2.60;;;;;;;;;;4854242;29;20198;-90
2021/10/02 12:45:44;;;;;;;12.18;2.90;;;;;;;;;;4856258;29;20215;-91
2021/10/02 12:48:58;;;;;;;7.07;3.05;;;;;;;;;;4853710;29;20297;-91
2021/10/02 12:52:11;;;;;;;8.25;3.13;;;;;;;;;;4853135;29;20289;-90
2021/10/02 12:55:24;;;;;;;8.30;3.70;;;;;;;;;;4855069;29;20201;-91
2021/10/02 12:58:51;;;;;;;3.63;2.50;;;;;;;;;;4854776;29;20222;-91
2021/10/02 13:02:07;;;;;;;8.77;2.47;;;;;;;;;;4854423;29;20203;-91
2021/10/02 13:05:25;;;;;;;6.05;2.80;;;;;;;;;;4855948;29;20210;-91
2021/10/02 13:08:37;;;;;;;5.55;2.50;;;;;;;;;;4854502;29;20194;-90
2021/10/02 13:11:50;;;;;;;5.07;2.53;;;;;;;;;;4855705;29;20211;-92
2021/10/02 13:15:04;;;;;;;3.97;2.33;;;;;;;;;;4854701;29;20310;-91
2021/10/02 13:18:26;;;;;;;4.63;2.42;;;;;;;;;;4853961;29;20228;-92
2021/10/02 13:21:39;;;;;;;6.95;2.85;;;;;;;;;;4853060;29;20206;-91
2021/10/02 13:25:06;;;;;;;4.80;2.55;;;;;;;;;;4852036;29;20220;-92
2021/10/02 13:28:22;;;;;;;6.95;2.55;;;;;;;;;;4854523;29;20201;-92
2021/10/02 13:31:34;;;;;;;4.95;2.25;;;;;;;;;;4852813;29;20223;-92
2021/10/02 13:34:54;;;;;;;4.40;2.20;;;;;;;;;;4853216;29;20304;-90
2021/10/02 13:38:07;;;;;;;6.07;2.42;;;;;;;;;;4851904;29;20646;-90
2021/10/02 13:41:18;;;;;;;5.90;2.38;;;;;;;;;;4853718;29;20674;-92
2021/10/02 13:44:32;;;;;;;4.40;2.08;;;;;;;;;;4853347;29;20282;-92
2021/10/02 13:47:56;;;;;;;6.20;2.33;;;;;;;;;;4854146;29;20207;-90
2021/10/02 13:51:10;;;;;;;5.47;2.05;;;;;;;;;;4854289;29;20255;-91
2021/10/02 13:54:21;;;;;;;6.90;2.42;;;;;;;;;;4852703;29;20202;-90
2021/10/02 13:57:36;;;;;;;3.97;2.42;;;;;;;;;;4853626;29;20206;-92
2021/10/02 14:00:48;;;;;;;3.88;2.00;;;;;;;;;;4854524;29;20670;-89
2021/10/02 14:04:00;;;;;;;4.05;2.35;;;;;;;;;;4852248;29;20630;-91
2021/10/02 14:07:16;;;;;;;3.60;2.33;;;;;;;;;;4851646;29;20423;-93
2021/10/02 14:10:28;;;;;;;5.97;2.10;;;;;;;;;;4853215;29;20254;-89
2021/10/02 14:13:40;;;;;;;3.00;2.00;;;;;;;;;;4854078;29;20304;-90
2021/10/02 14:16:52;;;;;;;4.47;1.85;;;;;;;;;;4851967;29;20206;-92
2021/10/02 14:20:04;;;;;;;4.05;2.00;;;;;;;;;;4852086;29;20534;-91
2021/10/02 14:23:17;;;;;;;4.82;1.92;;;;;;;;;;4853045;29;20243;-90
2021/10/02 14:26:29;;;;;;;2.90;2.00;;;;;;;;;;4850761;29;20294;-92
2021/10/02 14:29:41;;;;;;;2.20;1.80;;;;;;;;;;4851531;29;20332;-91
2021/10/02 14:32:55;;;;;;;3.88;2.00;;;;;;;;;;4853574;29;20278;-91
2021/10/02 14:36:07;;;;;;;4.75;2.20;;;;;;;;;;4852985;29;20329;-91
2021/10/02 14:39:21;;;;;;;6.55;1.70;;;;;;;;;;4853093;29;20274;-91
2021/10/02 14:42:32;;;;;;;3.80;1.65;;;;;;;;;;4854695;29;20186;-89
2021/10/02 14:45:43;;;;;;;2.78;1.95;;;;;;;;;;4853237;29;20252;-89
2021/10/02 14:48:55;;;;;;;3.92;1.92;;;;;;;;;;4852407;29;20198;-91
2021/10/02 14:52:09;;;;;;;5.70;1.42;;;;;;;;;;4853089;29;20198;-89
2021/10/02 14:55:22;;;;;;;2.97;1.48;;;;;;;;;;4851523;29;20199;-90
2021/10/02 14:58:36;;;;;;;3.10;1.60;;;;;;;;;;4851141;29;20287;-90
2021/10/02 15:01:48;;;;;;;2.55;1.52;;;;;;;;;;4850104;29;20212;-91
2021/10/02 15:05:02;;;;;;;3.63;1.70;;;;;;;;;;4850238;29;20198;-91
2021/10/02 15:08:14;;;;;;;3.45;1.40;;;;;;;;;;4851220;29;20202;-90
2021/10/02 15:11:27;;;;;;;3.00;1.60;;;;;;;;;;4849286;29;20218;-90
2021/10/02 15:14:40;;;;;;;3.75;1.52;;;;;;;;;;4852573;29;20207;-91
2021/10/02 15:17:53;;;;;;;3.33;1.38;;;;;;;;;;4850970;29;20211;-91
2021/10/02 15:21:08;;;;;;;3.15;1.40;;;;;;;;;;4851549;29;20287;-92
2021/10/02 15:24:19;;;;;;;3.00;1.20;;;;;;;;;;4852555;29;20345;-89
2021/10/02 15:27:35;;;;;;;5.07;1.52;;;;;;;;;;4855646;29;20647;-92
2021/10/02 15:30:47;;;;;;;6.53;1.35;;;;;;;;;;4858065;29;20222;-91
2021/10/02 15:33:59;;;;;;;3.10;1.60;;;;;;;;;;4855818;29;20194;-90
2021/10/02 15:37:12;;;;;;;4.95;1.80;;;;;;;;;;4857088;29;20272;-90
2021/10/02 15:40:25;;;;;;;2.53;1.55;;;;;;;;;;4856198;29;20229;-89
2021/10/02 15:43:38;;;;;;;2.85;1.52;;;;;;;;;;4856861;29;20335;-92
2021/10/02 15:46:53;;;;;;;5.20;1.75;;;;;;;;;;4856628;29;20219;-94
2021/10/02 15:50:08;;;;;;;2.50;1.75;;;;;;;;;;4854138;29;20639;-88
2021/10/02 15:53:21;;;;;;;6.40;2.55;;;;;;;;;;4853980;29;20202;-90
2021/10/02 15:56:35;;;;;;;3.45;1.80;;;;;;;;;;4857968;29;20262;-90
2021/10/02 15:59:49;;;;;;;4.03;2.30;;;;;;;;;;4855554;29;20327;-90
2021/10/02 16:03:02;;;;;;;4.40;2.53;;;;;;;;;;4855134;29;20212;-89
2021/10/02 16:06:15;;;;;;;12.27;7.10;;;;;;;;;;4856044;29;20243;-91
2021/10/02 16:09:31;;;;;;;11.13;5.05;;;;;;;;;;4856133;29;20191;-92
2021/10/02 16:12:44;;;;;;;5.20;2.58;;;;;;;;;;4854292;29;20202;-91
2021/10/02 16:15:57;;;;;;;6.38;3.83;;;;;;;;;;4854537;29;20210;-92
2021/10/02 16:19:08;;;;;;;14.07;7.20;;;;;;;;;;4853784;29;20277;-90
2021/10/02 16:22:20;;;;;;;8.27;5.10;;;;;;;;;;4854289;29;20218;-91
2021/10/02 16:25:33;;;;;;;7.85;4.40;;;;;;;;;;4855922;29;20250;-89
2021/10/02 16:28:45;;;;;;;6.20;3.78;;;;;;;;;;4857644;29;20218;-89
2021/10/02 16:31:59;;;;;;;8.07;4.07;;;;;;;;;;4857828;29;20215;-91
2021/10/02 16:35:13;;;;;;;6.97;3.05;;;;;;;;;;4856410;29;20202;-91
2021/10/02 16:38:25;;;;;;;25.85;6.18;;;;;;;;;;4856417;29;20195;-90
2021/10/02 16:41:37;;;;;;;10.77;5.38;;;;;;;;;;4855718;29;20211;-92
2021/10/02 16:44:55;;;;;;;12.77;7.22;;;;;;;;;;4855704;29;20220;-92
2021/10/02 16:52:23;;;;;;;10.98;5.25;;;;;;;;;;4860977;29;20218;-88
2021/10/02 16:55:45;;;;;;;13.05;7.28;;;;;;;;;;4860512;29;20206;-89
2021/10/02 16:58:56;;;;;;;9.13;4.28;;;;;;;;;;4855100;29;20182;-90
2021/10/02 17:02:10;;;;;;;20.55;9.20;;;;;;;;;;4854151;29;20218;-92
2021/10/02 17:05:44;;;;;;;17.27;8.07;;;;;;;;;;4843905;29;20206;-90
2021/10/02 17:08:55;;;;;;;13.88;7.18;;;;;;;;;;4851268;29;20627;-91
2021/10/02 17:12:10;;;;;;;17.15;6.00;;;;;;;;;;4853321;29;20258;-91
2021/10/02 17:15:22;;;;;;;14.60;7.47;;;;;;;;;;4852391;29;20692;-90
2021/10/02 17:18:36;;;;;;;12.02;5.13;;;;;;;;;;4853079;29;20203;-90
2021/10/02 17:21:47;;;;;;;12.00;4.40;;;;;;;;;;4855238;29;20249;-91
2021/10/02 17:24:59;;;;;;;24.02;11.25;;;;;;;;;;4855568;29;20195;-90
2021/10/02 17:28:14;;;;;;;14.57;7.60;;;;;;;;;;4854351;29;20218;-91
2021/10/02 17:31:28;;;;;;;32.88;16.10;;;;;;;;;;4853014;29;20735;-89
2021/10/02 17:34:41;;;;;;;14.30;4.85;;;;;;;;;;4853704;29;20210;-92
2021/10/02 17:37:56;;;;;;;29.73;15.02;;;;;;;;;;4854226;29;20203;-90
2021/10/02 17:41:07;;;;;;;20.40;9.80;;;;;;;;;;4852523;29;20206;-90
2021/10/02 17:44:21;;;;;;;18.75;7.40;;;;;;;;;;4854197;29;20195;-91
2021/10/02 17:47:33;;;;;;;13.27;6.30;;;;;;;;;;4854692;29;20202;-91
2021/10/02 17:50:45;;;;;;;13.07;6.40;;;;;;;;;;4856403;29;20276;-91
2021/10/02 17:53:56;;;;;;;11.20;6.45;;;;;;;;;;4857403;29;20684;-90
2021/10/02 17:57:11;;;;;;;16.20;7.80;;;;;;;;;;4857230;29;20194;-89
2021/10/02 18:00:29;;;;;;;23.05;12.52;;;;;;;;;;4852763;29;20263;-89
2021/10/02 18:03:57;;;;;;;20.88;9.80;;;;;;;;;;4853298;29;20202;-89
2021/10/02 18:07:08;;;;;;;14.68;7.88;;;;;;;;;;4852307;29;20628;-91
2021/10/02 18:10:20;;;;;;;13.68;7.28;;;;;;;;;;4852520;29;20203;-90
2021/10/02 18:13:33;;;;;;;15.95;6.85;;;;;;;;;;4852550;29;20301;-89
2021/10/02 18:16:47;;;;;;;18.08;8.63;;;;;;;;;;4853832;29;20213;-91
2021/10/02 18:19:59;;;;;;;25.48;8.02;;;;;;;;;;4852546;29;20540;-91
2021/10/02 18:23:12;;;;;;;17.83;6.82;;;;;;;;;;4850933;29;20220;-90
2021/10/02 18:26:27;;;;;;;20.00;9.40;;;;;;;;;;4851719;29;20206;-92
2021/10/02 18:29:41;;;;;;;11.93;6.20;;;;;;;;;;4851078;29;20292;-89
2021/10/02 18:32:54;;;;;;;11.75;6.10;;;;;;;;;;4853089;29;20217;-91
2021/10/02 18:36:05;;;;;;;11.05;6.28;;;;;;;;;;4851484;29;20199;-92
2021/10/02 18:39:21;;;;;;;12.68;5.97;;;;;;;;;;4851927;29;20298;-90
2021/10/02 18:42:32;;;;;;;20.67;7.13;;;;;;;;;;4857349;29;20198;-89
2021/10/02 18:45:44;;;;;;;17.23;6.95;;;;;;;;;;4854182;29;20206;-90
2021/10/02 18:48:59;;;;;;;14.65;6.05;;;;;;;;;;4853994;29;20195;-91
2021/10/02 18:52:12;;;;;;;14.45;5.97;;;;;;;;;;4853672;29;20268;-91
2021/10/02 18:55:24;;;;;;;14.15;5.25;;;;;;;;;;4853278;29;20190;-92
2021/10/02 18:58:36;;;;;;;11.60;6.18;;;;;;;;;;4856091;29;20205;-90
2021/10/02 19:01:49;;;;;;;17.08;6.82;;;;;;;;;;4857156;29;20190;-90
2021/10/02 19:09:45;;;;;;;16.17;7.45;;;;;;;;;;4858442;29;20178;-90
2021/10/02 19:12:57;;;;;;;14.20;6.53;;;;;;;;;;4856079;29;20308;-91
2021/10/02 19:16:09;;;;;;;17.73;7.28;;;;;;;;;;4862594;29;20187;-89
2021/10/02 19:19:21;;;;;;;14.25;7.50;;;;;;;;;;4855731;29;20214;-89
2021/10/02 19:22:33;;;;;;;15.25;7.05;;;;;;;;;;4855328;29;20298;-92
2021/10/02 19:25:47;;;;;;;33.72;16.67;;;;;;;;;;4856680;29;20198;-90
2021/10/02 19:28:58;;;;;;;29.23;12.75;;;;;;;;;;4855118;29;20230;-89
2021/10/02 19:32:10;;;;;;;20.17;8.40;;;;;;;;;;4855365;29;20218;-91
2021/10/02 19:35:22;;;;;;;14.82;7.00;;;;;;;;;;4854077;29;20198;-89
2021/10/02 19:38:34;;;;;;;20.15;8.13;;;;;;;;;;4854921;29;20182;-91
2021/10/02 19:41:47;;;;;;;23.05;9.65;;;;;;;;;;4855237;29;20206;-90
2021/10/02 19:44:59;;;;;;;44.67;16.05;;;;;;;;;;4855511;29;20203;-91
2021/10/02 19:48:17;;;;;;;18.95;9.50;;;;;;;;;;4855463;29;20476;-90
2021/10/02 19:51:29;;;;;;;20.23;9.05;;;;;;;;;;4855355;29;20227;-90
2021/10/02 19:54:41;;;;;;;14.55;6.70;;;;;;;;;;4855316;29;20195;-90
2021/10/02 19:57:54;;;;;;;13.27;6.47;;;;;;;;;;4856854;29;20278;-91
2021/10/02 20:01:08;;;;;;;27.85;10.80;;;;;;;;;;4854505;29;20195;-89